首页
METAR-TAF:

METAR-TAF

机场 :

鹿特丹海牙机场

鹿特丹, 荷兰

纬度: 51-57N, 经度: 004-27E, 海拔: -5米

当前天气观测

该预报发布于41分钟前的15:55 UTC
风速14节,风向西转西北,在西转西南北转西北之间变化
温度 12°C
湿度 67%
气压 994 hPa
能见度10公里或以上
少量云层高于2700英尺
散云层高于3500英尺

METAR: EHRD 051555Z AUTO 29014KT 240V340 9999 FEW027 SCT035 12/06 Q0994 TEMPO 7000 -SHRA

时间: 18:36 (16:36 UTC)

预报

该预报发布于5小时和25分钟前的11:11 UTC
预报有效从05日的 12点(UTC)到 06日的 18点(UTC)
风速14节,风向西
能见度10公里或以上
散云层高于2500英尺
成为
从 05日的 12点(UTC)到 05日的 14点(UTC)
风速15节,风向西北,有时为25节阵风
短暂存在
从 05日的 12点(UTC)到 05日的 15点(UTC)
能見度: 6000
散云层高于2000英尺, 积雨云.
阵雨
几率 30% :
短暂存在
从 05日的 12点(UTC)到 05日的 14点(UTC)
风速15节,风向西,有时为25节阵风
能見度: 3500
多云层高于1200英尺
散云层高于1800英尺, 积雨云.
雷暴, 雨
成为
从 05日的 15点(UTC)到 05日的 18点(UTC)
风速12节,风向西
几率 40% :
短暂存在
从 05日的 15点(UTC)到 06日的 01点(UTC)
能見度: 6000
散云层高于2000英尺, 积雨云.
阵雨
成为
从 05日的 18点(UTC)到 05日的 21点(UTC)
风速10节,风向西转西南
成为
从 06日的 07点(UTC)到 06日的 10点(UTC)
风速21节,风向西南,有时为31节阵风
成为
从 06日的 15点(UTC)到 06日的 18点(UTC)
风速16节,风向南转西南

TAF: EHRD 051111Z 0512/0618 26014KT 9999 SCT025 BECMG 0512/0514 32015G25KT TEMPO 0512/0515 6000 SHRA SCT020CB PROB30 TEMPO 0512/0514 27015G25KT 3500 TSRA BKN012 SCT018CB BECMG 0515/0518 28012KT PROB40 TEMPO 0515/0601 6000 SHRA SCT020CB BECMG 0518/0521 24010KT BECMG 0607/0610 23021G31KT BECMG 0615/0618 21016KT

超过4000个机场的气象观测和天气预报(METAR&TAF报告)。

可查询的气象台以黄色和红色小点在地图上表示。

将鼠标移到小点上方,可查看气象台名称。

然后点击查看天气观测和预报。

如需切换地图:点击带黑十字的绿色按钮放大地图;点击带横线的绿色按钮缩小地图;或者点击绿色箭头查看邻近地区的地图。


METAR-TAF: